createdAt,value
2023-04-30T00:01:00.075Z,20.75
2023-04-30T00:03:27.365Z,20.69
2023-04-30T00:05:54.437Z,20.66
2023-04-30T00:08:21.416Z,20.64
2023-04-30T00:10:48.548Z,20.62
2023-04-30T00:13:15.451Z,20.65
2023-04-30T00:15:42.373Z,20.60
2023-04-30T00:18:09.353Z,20.65
2023-04-30T00:20:36.405Z,20.65
2023-04-30T00:23:03.486Z,20.68
2023-04-30T00:25:30.422Z,20.73
2023-04-30T00:27:57.491Z,20.73
2023-04-30T00:30:24.434Z,20.75
2023-04-30T00:32:51.407Z,20.74
2023-04-30T00:35:18.420Z,20.77
2023-04-30T00:37:46.148Z,20.78
2023-04-30T00:40:13.445Z,20.80
2023-04-30T00:42:40.789Z,20.83
2023-04-30T00:45:08.406Z,20.82
2023-04-30T00:47:35.761Z,20.83
2023-04-30T00:50:02.698Z,20.81
2023-04-30T00:52:30.886Z,20.80
2023-04-30T00:54:58.461Z,20.78
2023-04-30T00:57:26.870Z,20.71
2023-04-30T00:59:55.028Z,20.71
2023-04-30T01:02:23.196Z,20.69
2023-04-30T01:04:50.971Z,20.70
2023-04-30T01:07:18.089Z,20.68
2023-04-30T01:09:45.132Z,20.67
2023-04-30T01:12:23.514Z,20.62
2023-04-30T01:14:59.435Z,20.64
2023-04-30T01:17:42.078Z,20.61
2023-04-30T01:20:11.565Z,20.60
2023-04-30T01:22:50.877Z,20.56
2023-04-30T01:25:42.351Z,20.51
2023-04-30T01:28:14.891Z,20.47
2023-04-30T01:30:44.905Z,20.47
2023-04-30T01:33:12.918Z,20.41
2023-04-30T01:35:46.716Z,20.42
2023-04-30T01:38:42.598Z,20.45
2023-04-30T01:41:37.908Z,20.40
2023-04-30T01:44:10.980Z,20.36
2023-04-30T01:46:38.221Z,20.34
2023-04-30T01:49:37.731Z,20.36
2023-04-30T01:52:18.376Z,20.32
2023-04-30T01:55:04.558Z,20.31
2023-04-30T01:57:59.623Z,20.30
2023-04-30T02:00:28.933Z,20.29
2023-04-30T02:02:56.011Z,20.28
2023-04-30T02:05:23.303Z,20.24
2023-04-30T02:07:52.115Z,20.26
2023-04-30T02:10:23.312Z,20.27
2023-04-30T02:12:50.350Z,20.27
2023-04-30T02:15:17.487Z,20.24
2023-04-30T02:17:44.566Z,20.23
2023-04-30T02:20:12.419Z,20.23
2023-04-30T02:22:39.545Z,20.21
2023-04-30T02:25:07.129Z,20.19
2023-04-30T02:27:34.391Z,20.15
2023-04-30T02:30:01.661Z,20.13
2023-04-30T02:32:28.811Z,20.08
2023-04-30T02:34:55.929Z,20.08
2023-04-30T02:37:23.315Z,20.07
2023-04-30T02:39:51.111Z,20.00
2023-04-30T02:42:18.139Z,19.98
2023-04-30T02:44:45.425Z,19.99
2023-04-30T02:47:12.377Z,19.98
2023-04-30T02:49:40.125Z,19.95
2023-04-30T02:52:09.677Z,19.92
2023-04-30T02:54:37.273Z,19.95
2023-04-30T02:57:04.398Z,19.94
2023-04-30T02:59:31.709Z,19.93
2023-04-30T03:01:58.792Z,19.94
2023-04-30T03:04:26.382Z,19.96
2023-04-30T03:06:53.492Z,19.94
2023-04-30T03:09:20.392Z,19.96
2023-04-30T03:11:47.284Z,19.98
2023-04-30T03:14:14.490Z,19.99
2023-04-30T03:16:41.588Z,20.04
2023-04-30T03:19:08.568Z,20.07
2023-04-30T03:21:35.607Z,20.11
2023-04-30T03:24:02.502Z,20.14
2023-04-30T03:26:29.545Z,20.16
2023-04-30T03:28:56.498Z,20.19
2023-04-30T03:31:23.846Z,20.19
2023-04-30T03:33:51.188Z,20.20
2023-04-30T03:36:18.228Z,20.17
2023-04-30T03:38:45.264Z,20.12
2023-04-30T03:41:12.212Z,20.14
2023-04-30T03:43:39.173Z,20.13
2023-04-30T03:46:06.423Z,20.14
2023-04-30T03:48:33.528Z,20.17
2023-04-30T03:51:00.467Z,20.20
2023-04-30T03:53:27.506Z,20.18
2023-04-30T03:55:55.062Z,20.22
2023-04-30T03:58:22.572Z,20.23
2023-04-30T04:00:49.830Z,20.23
2023-04-30T04:03:17.170Z,20.23
2023-04-30T04:05:44.962Z,20.23
2023-04-30T04:08:12.182Z,20.25
2023-04-30T04:10:40.345Z,20.27
2023-04-30T04:13:08.889Z,20.27
2023-04-30T04:15:36.247Z,20.22
2023-04-30T04:18:04.078Z,20.27
2023-04-30T04:20:32.670Z,20.26
2023-04-30T04:23:00.100Z,20.27
2023-04-30T04:25:27.613Z,20.26
2023-04-30T04:27:54.643Z,20.28
2023-04-30T04:30:21.661Z,20.25
2023-04-30T04:32:54.159Z,20.23
2023-04-30T04:35:21.593Z,20.23
2023-04-30T04:37:48.754Z,20.20
2023-04-30T04:40:15.762Z,20.19
2023-04-30T04:42:42.747Z,20.16
2023-04-30T04:45:10.208Z,20.14
2023-04-30T04:47:39.160Z,20.07
2023-04-30T04:50:06.911Z,20.03
2023-04-30T04:52:33.926Z,20.03
2023-04-30T04:55:00.911Z,19.99
2023-04-30T04:57:27.817Z,19.98
2023-04-30T04:59:54.986Z,19.98
2023-04-30T05:02:23.624Z,19.97
2023-04-30T05:04:51.667Z,19.95
2023-04-30T05:07:19.327Z,19.97
2023-04-30T05:09:47.678Z,19.98
2023-04-30T05:12:15.542Z,20.01
2023-04-30T05:14:43.185Z,20.03
2023-04-30T05:17:19.748Z,20.07
2023-04-30T05:19:47.718Z,20.10
2023-04-30T05:22:14.724Z,20.12
2023-04-30T05:24:41.684Z,20.19
2023-04-30T05:27:09.289Z,20.24
2023-04-30T05:29:36.388Z,20.26
2023-04-30T05:32:03.668Z,20.31
2023-04-30T05:34:30.863Z,20.36
2023-04-30T05:36:57.789Z,20.44
2023-04-30T05:39:24.849Z,20.53
2023-04-30T05:41:53.319Z,20.58
2023-04-30T05:44:20.538Z,20.65
2023-04-30T05:46:47.518Z,20.68
2023-04-30T05:49:14.459Z,20.78
2023-04-30T05:51:41.354Z,20.79
2023-04-30T05:54:08.450Z,20.91
2023-04-30T05:56:35.366Z,20.97
2023-04-30T05:59:02.343Z,21.10
2023-04-30T06:01:29.513Z,21.22
2023-04-30T06:03:56.594Z,21.46
2023-04-30T06:06:23.632Z,22.13
2023-04-30T06:08:50.758Z,22.95
2023-04-30T06:11:17.710Z,23.91
2023-04-30T06:13:49.005Z,24.77
2023-04-30T06:16:16.638Z,25.59
2023-04-30T06:18:44.457Z,26.32
2023-04-30T06:21:11.629Z,27.05
2023-04-30T06:23:38.732Z,27.80
2023-04-30T06:26:05.909Z,28.51
2023-04-30T06:28:32.902Z,29.17
2023-04-30T06:31:00.023Z,29.71
2023-04-30T06:33:27.079Z,30.30
2023-04-30T06:35:55.742Z,30.59
2023-04-30T06:38:22.693Z,31.03
2023-04-30T06:40:49.841Z,31.19
2023-04-30T06:43:17.385Z,31.74
2023-04-30T06:45:44.501Z,32.18
2023-04-30T06:48:11.505Z,32.71
2023-04-30T06:50:45.227Z,33.28
2023-04-30T06:53:13.056Z,33.08
2023-04-30T06:55:40.814Z,33.32
2023-04-30T06:58:08.240Z,33.75
2023-04-30T07:00:35.444Z,34.37
2023-04-30T07:03:03.896Z,34.86
2023-04-30T07:05:31.359Z,34.42
2023-04-30T07:07:59.380Z,34.40
2023-04-30T07:10:26.512Z,35.10
2023-04-30T07:12:54.077Z,34.92
2023-04-30T07:15:21.068Z,35.08
2023-04-30T07:17:48.101Z,35.56
2023-04-30T07:20:15.336Z,35.52
2023-04-30T07:22:45.102Z,35.99
2023-04-30T07:25:13.112Z,34.98
2023-04-30T07:27:41.026Z,33.10
2023-04-30T07:30:10.169Z,33.01
2023-04-30T07:32:37.876Z,32.69
2023-04-30T07:35:05.509Z,32.62
2023-04-30T07:37:34.917Z,32.38
2023-04-30T07:40:03.375Z,32.69
2023-04-30T07:42:33.296Z,32.58
2023-04-30T07:45:00.911Z,33.44
2023-04-30T07:47:28.524Z,33.92
2023-04-30T07:49:55.929Z,34.05
2023-04-30T07:52:23.193Z,34.01
2023-04-30T07:54:50.250Z,34.63
2023-04-30T07:57:17.616Z,33.83
2023-04-30T07:59:44.824Z,33.14
2023-04-30T08:02:11.927Z,33.38
2023-04-30T08:04:38.923Z,33.23
2023-04-30T08:07:05.911Z,34.47
2023-04-30T08:09:33.025Z,34.85
2023-04-30T08:12:00.061Z,35.65
2023-04-30T08:14:27.022Z,35.51
2023-04-30T08:16:54.031Z,35.76
2023-04-30T08:19:21.035Z,36.40
2023-04-30T08:21:48.064Z,36.03
2023-04-30T08:24:15.106Z,34.85
2023-04-30T08:26:42.366Z,35.59
2023-04-30T08:29:09.333Z,35.93
2023-04-30T08:31:36.448Z,34.75
2023-04-30T08:34:03.502Z,35.19
2023-04-30T08:36:30.480Z,34.39
2023-04-30T08:38:57.696Z,33.81
2023-04-30T08:41:27.184Z,33.07
2023-04-30T08:43:54.282Z,32.68
2023-04-30T08:46:23.383Z,32.10
2023-04-30T08:48:50.867Z,31.67
2023-04-30T08:51:18.151Z,31.63
2023-04-30T08:53:47.145Z,31.24
2023-04-30T08:56:14.351Z,31.00
2023-04-30T08:58:41.435Z,30.85
2023-04-30T09:01:10.358Z,31.01
2023-04-30T09:03:38.032Z,31.45
2023-04-30T09:06:05.282Z,31.61
2023-04-30T09:08:49.118Z,30.83
2023-04-30T09:11:30.412Z,30.69
2023-04-30T09:14:02.260Z,30.47
2023-04-30T09:16:44.704Z,30.72
2023-04-30T09:19:25.070Z,29.45
2023-04-30T09:21:52.335Z,29.69
2023-04-30T09:24:19.564Z,28.53
2023-04-30T09:26:48.278Z,28.46
2023-04-30T09:29:15.866Z,29.02
2023-04-30T09:31:46.104Z,28.63
2023-04-30T09:34:14.157Z,28.23
2023-04-30T09:36:57.215Z,28.32
2023-04-30T09:39:24.572Z,28.11
2023-04-30T09:41:52.370Z,27.28
2023-04-30T09:44:30.236Z,27.24
2023-04-30T09:46:58.845Z,26.45
2023-04-30T09:49:31.527Z,25.88
2023-04-30T09:52:01.102Z,25.94
2023-04-30T09:54:32.426Z,25.90
2023-04-30T09:57:03.371Z,25.52
2023-04-30T09:59:32.747Z,25.45
2023-04-30T10:02:03.880Z,25.14
2023-04-30T10:04:34.383Z,24.54
2023-04-30T10:07:15.885Z,24.34
2023-04-30T10:09:59.509Z,25.12
2023-04-30T10:12:34.453Z,25.33
2023-04-30T10:15:17.743Z,25.37
2023-04-30T10:17:54.985Z,25.24
2023-04-30T10:20:23.436Z,25.40
2023-04-30T10:22:50.591Z,25.41
2023-04-30T10:25:18.027Z,25.28
2023-04-30T10:27:46.070Z,24.84
2023-04-30T10:30:13.915Z,24.80
2023-04-30T10:33:17.101Z,24.63
2023-04-30T10:35:46.681Z,24.29
2023-04-30T10:38:21.932Z,24.73
2023-04-30T10:40:49.141Z,24.48
2023-04-30T10:43:22.311Z,24.84
2023-04-30T10:45:50.174Z,25.04
2023-04-30T10:48:24.921Z,24.94
2023-04-30T10:50:57.519Z,24.82
2023-04-30T10:53:29.445Z,25.02
2023-04-30T10:56:09.276Z,24.98
2023-04-30T10:58:40.845Z,24.77
2023-04-30T11:01:20.862Z,24.44
2023-04-30T11:04:08.497Z,24.29
2023-04-30T11:07:02.292Z,24.13
2023-04-30T11:09:51.462Z,24.08
2023-04-30T11:12:28.357Z,24.38
2023-04-30T11:15:01.980Z,24.33
2023-04-30T11:17:30.190Z,24.19
2023-04-30T11:20:01.051Z,24.04
2023-04-30T11:22:30.288Z,23.81
2023-04-30T11:25:09.864Z,23.81
2023-04-30T11:27:38.735Z,24.03
2023-04-30T11:30:11.245Z,24.01
2023-04-30T11:32:39.615Z,23.86
2023-04-30T11:35:07.865Z,24.11
2023-04-30T11:37:38.778Z,24.10
2023-04-30T11:40:08.831Z,24.24
2023-04-30T11:42:35.935Z,24.21
2023-04-30T11:45:08.609Z,23.73
2023-04-30T11:47:45.937Z,22.87
2023-04-30T11:50:17.173Z,23.31
2023-04-30T11:52:50.328Z,23.63
2023-04-30T11:55:19.609Z,23.87
2023-04-30T11:57:49.458Z,23.64
2023-04-30T12:00:19.269Z,23.65
2023-04-30T12:02:51.928Z,23.94
2023-04-30T12:05:24.321Z,23.62
2023-04-30T12:07:59.931Z,24.01
2023-04-30T12:10:27.568Z,23.97
2023-04-30T12:12:55.446Z,23.90
2023-04-30T12:15:28.091Z,23.81
2023-04-30T12:17:57.575Z,23.40
2023-04-30T12:20:26.574Z,23.48
2023-04-30T12:22:54.230Z,23.37
2023-04-30T12:25:22.612Z,23.71
2023-04-30T12:27:52.143Z,23.57
2023-04-30T12:30:25.689Z,23.74
2023-04-30T12:32:57.208Z,23.55
2023-04-30T12:35:27.952Z,23.49
2023-04-30T12:38:09.870Z,23.29
2023-04-30T12:40:37.609Z,23.42
2023-04-30T12:43:07.297Z,23.49
2023-04-30T12:45:55.376Z,23.57
2023-04-30T12:48:26.366Z,23.26
2023-04-30T12:50:55.990Z,23.14
2023-04-30T12:53:24.267Z,22.79
2023-04-30T12:56:17.267Z,22.77
2023-04-30T12:58:47.481Z,22.94
2023-04-30T13:01:18.483Z,22.70
2023-04-30T13:03:46.108Z,22.83
2023-04-30T13:06:13.290Z,23.03
2023-04-30T13:08:53.995Z,22.96
2023-04-30T13:11:26.698Z,23.34
2023-04-30T13:13:57.569Z,23.47
2023-04-30T13:16:25.396Z,23.61
2023-04-30T13:18:53.148Z,23.68
2023-04-30T13:21:22.180Z,23.78
2023-04-30T13:23:53.631Z,23.79
2023-04-30T13:26:23.608Z,23.83
2023-04-30T13:28:53.866Z,23.72
2023-04-30T13:31:21.019Z,23.66
2023-04-30T13:33:48.808Z,23.72
2023-04-30T13:36:16.407Z,23.83
2023-04-30T13:38:44.493Z,23.85
2023-04-30T13:41:11.630Z,23.50
2023-04-30T13:43:41.550Z,23.39
2023-04-30T13:46:14.211Z,23.53
2023-04-30T13:48:42.976Z,23.51
2023-04-30T13:51:10.652Z,23.24
2023-04-30T13:53:40.693Z,23.17
2023-04-30T13:56:15.177Z,23.30
2023-04-30T13:58:42.368Z,23.33
2023-04-30T14:01:10.762Z,23.53
2023-04-30T14:03:38.137Z,23.86
2023-04-30T14:06:06.105Z,23.94
2023-04-30T14:08:33.963Z,23.98
2023-04-30T14:11:02.088Z,23.97
2023-04-30T14:13:29.856Z,24.04
2023-04-30T14:15:57.145Z,23.73
2023-04-30T14:18:24.684Z,23.64
2023-04-30T14:20:51.935Z,23.66
2023-04-30T14:23:18.989Z,23.46
2023-04-30T14:25:46.558Z,23.56
2023-04-30T14:28:14.957Z,23.29
2023-04-30T14:30:44.416Z,23.38
2023-04-30T14:33:12.656Z,23.22
2023-04-30T14:35:41.915Z,23.04
2023-04-30T14:38:09.274Z,23.04
2023-04-30T14:40:36.579Z,23.25
2023-04-30T14:43:06.237Z,23.18
2023-04-30T14:45:33.908Z,23.40
2023-04-30T14:48:04.010Z,23.38
2023-04-30T14:50:33.191Z,23.36
2023-04-30T14:53:00.806Z,23.22
2023-04-30T14:55:28.247Z,22.96
2023-04-30T14:57:55.523Z,22.83
2023-04-30T15:00:34.283Z,22.80
2023-04-30T15:03:01.745Z,22.87
2023-04-30T15:05:29.460Z,22.93
2023-04-30T15:07:56.886Z,22.73
2023-04-30T15:10:24.034Z,22.70
2023-04-30T15:12:54.434Z,22.51
2023-04-30T15:15:28.085Z,22.45
2023-04-30T15:17:59.218Z,22.42
2023-04-30T15:20:26.435Z,22.31
2023-04-30T15:22:55.087Z,22.19
2023-04-30T15:25:24.249Z,22.17
2023-04-30T15:28:08.917Z,21.55
2023-04-30T15:30:36.310Z,21.43
2023-04-30T15:33:03.586Z,21.22
2023-04-30T15:35:31.277Z,20.99
2023-04-30T15:37:58.292Z,20.99
2023-04-30T15:40:25.459Z,21.06
2023-04-30T15:42:52.392Z,21.15
2023-04-30T15:45:20.836Z,21.22
2023-04-30T15:47:48.272Z,21.44
2023-04-30T15:50:16.761Z,21.58
2023-04-30T15:52:43.670Z,21.69
2023-04-30T15:55:10.642Z,21.72
2023-04-30T15:57:38.033Z,21.69
2023-04-30T16:00:05.779Z,21.51
2023-04-30T16:02:38.867Z,21.27
2023-04-30T16:05:06.196Z,21.02
2023-04-30T16:07:33.370Z,20.95
2023-04-30T16:10:01.338Z,20.97
2023-04-30T16:12:28.227Z,21.00
2023-04-30T16:14:56.083Z,21.00
2023-04-30T16:17:24.445Z,20.99
2023-04-30T16:19:51.533Z,21.11
2023-04-30T16:22:18.716Z,21.07
2023-04-30T16:24:45.793Z,21.16
2023-04-30T16:27:18.663Z,21.24
2023-04-30T16:29:45.984Z,21.25
2023-04-30T16:32:13.452Z,21.19
2023-04-30T16:34:40.508Z,21.02
2023-04-30T16:37:08.063Z,20.92
2023-04-30T16:39:35.702Z,20.96
2023-04-30T16:42:02.900Z,21.02
2023-04-30T16:44:29.978Z,21.17
2023-04-30T16:47:07.588Z,21.15
2023-04-30T16:49:35.140Z,21.12
2023-04-30T16:52:05.052Z,20.91
2023-04-30T16:54:32.044Z,20.95
2023-04-30T16:57:04.886Z,20.84
2023-04-30T16:59:32.237Z,20.85
2023-04-30T17:02:02.899Z,20.70
2023-04-30T17:04:30.762Z,20.80
2023-04-30T17:06:59.253Z,20.94
2023-04-30T17:09:31.614Z,21.01
2023-04-30T17:11:58.763Z,21.14
2023-04-30T17:14:27.383Z,20.87
2023-04-30T17:16:54.895Z,20.75
2023-04-30T17:19:27.291Z,20.91
2023-04-30T17:21:55.163Z,21.00
2023-04-30T17:24:25.244Z,21.11
2023-04-30T17:26:55.289Z,21.09
2023-04-30T17:29:23.677Z,21.13
2023-04-30T17:31:50.866Z,21.09
2023-04-30T17:34:18.584Z,21.07
2023-04-30T17:36:50.204Z,20.85
2023-04-30T17:39:19.180Z,20.85
2023-04-30T17:41:46.641Z,20.88
2023-04-30T17:44:13.640Z,20.77
2023-04-30T17:46:41.443Z,20.66
2023-04-30T17:49:08.909Z,20.64
2023-04-30T17:51:36.122Z,20.41
2023-04-30T17:54:03.161Z,20.40
2023-04-30T17:56:31.661Z,20.09
2023-04-30T17:59:00.066Z,20.16
2023-04-30T18:01:27.865Z,20.26
2023-04-30T18:03:57.702Z,20.34
2023-04-30T18:06:27.786Z,20.45
2023-04-30T18:09:01.475Z,20.52
2023-04-30T18:11:29.096Z,20.56
2023-04-30T18:13:56.315Z,20.65
2023-04-30T18:16:23.688Z,20.55
2023-04-30T18:18:51.188Z,20.50
2023-04-30T18:21:18.690Z,20.12
2023-04-30T18:23:45.636Z,20.03
2023-04-30T18:26:15.584Z,20.08
2023-04-30T18:28:43.195Z,20.18
2023-04-30T18:31:18.716Z,20.32
2023-04-30T18:33:45.755Z,20.29
2023-04-30T18:36:13.172Z,20.35
2023-04-30T18:38:42.780Z,20.38
2023-04-30T18:41:09.773Z,20.34
2023-04-30T18:43:37.578Z,20.28
2023-04-30T18:46:05.911Z,20.25
2023-04-30T18:48:33.251Z,20.19
2023-04-30T18:51:00.601Z,20.07
2023-04-30T18:53:27.735Z,19.99
2023-04-30T18:55:57.356Z,19.70
2023-04-30T18:58:24.374Z,19.67
2023-04-30T19:00:51.617Z,19.83
2023-04-30T19:03:18.727Z,19.90
2023-04-30T19:05:45.785Z,19.96
2023-04-30T19:08:13.008Z,20.06
2023-04-30T19:10:39.952Z,19.99
2023-04-30T19:13:07.629Z,20.09
2023-04-30T19:15:35.519Z,20.15
2023-04-30T19:18:02.655Z,20.25
2023-04-30T19:20:29.684Z,20.35
2023-04-30T19:22:56.834Z,20.31
2023-04-30T19:25:23.763Z,20.31
2023-04-30T19:27:51.573Z,20.39
2023-04-30T19:30:18.512Z,20.36
2023-04-30T19:32:45.550Z,20.34
2023-04-30T19:35:12.862Z,20.37
2023-04-30T19:37:39.861Z,20.29
2023-04-30T19:40:13.049Z,20.18
2023-04-30T19:42:40.228Z,20.24
2023-04-30T19:45:11.402Z,20.29
2023-04-30T19:47:38.532Z,20.37
2023-04-30T19:50:06.064Z,20.45
2023-04-30T19:52:33.242Z,20.47
2023-04-30T19:55:00.378Z,20.40
2023-04-30T19:57:28.209Z,20.30
2023-04-30T19:59:55.471Z,20.26
2023-04-30T20:02:22.676Z,20.07
2023-04-30T20:04:49.569Z,19.93
2023-04-30T20:07:22.684Z,20.03
2023-04-30T20:09:49.640Z,20.06
2023-04-30T20:12:16.850Z,20.03
2023-04-30T20:14:44.024Z,20.15
2023-04-30T20:17:10.923Z,19.93
2023-04-30T20:19:38.310Z,19.78
2023-04-30T20:22:09.866Z,19.86
2023-04-30T20:24:37.014Z,19.92
2023-04-30T20:27:04.655Z,19.95
2023-04-30T20:29:32.129Z,19.94
2023-04-30T20:31:59.596Z,19.73
2023-04-30T20:34:26.689Z,19.80
2023-04-30T20:36:54.119Z,19.78
2023-04-30T20:39:21.301Z,19.88
2023-04-30T20:41:48.532Z,19.87
2023-04-30T20:44:15.521Z,19.82
2023-04-30T20:46:43.371Z,19.82
2023-04-30T20:49:11.945Z,19.85
2023-04-30T20:51:39.528Z,19.70
2023-04-30T20:54:08.838Z,19.73
2023-04-30T20:56:36.014Z,19.86
2023-04-30T20:59:04.968Z,19.97
2023-04-30T21:01:32.048Z,19.91
2023-04-30T21:04:00.774Z,19.92
2023-04-30T21:06:28.263Z,20.04
2023-04-30T21:08:55.441Z,20.13
2023-04-30T21:11:22.491Z,20.22
2023-04-30T21:13:51.242Z,20.31
2023-04-30T21:16:18.841Z,20.36
2023-04-30T21:18:46.394Z,20.43
2023-04-30T21:21:13.769Z,20.50
2023-04-30T21:23:41.475Z,20.52
2023-04-30T21:26:08.425Z,20.56
2023-04-30T21:28:35.552Z,20.57
2023-04-30T21:31:07.670Z,20.62
2023-04-30T21:33:38.977Z,20.66
2023-04-30T21:36:06.396Z,20.65
2023-04-30T21:38:38.017Z,20.64
2023-04-30T21:41:07.858Z,20.63
2023-04-30T21:43:35.171Z,20.58
2023-04-30T21:46:03.299Z,20.60
2023-04-30T21:48:31.108Z,20.59
2023-04-30T21:50:58.120Z,20.60
2023-04-30T21:53:25.033Z,20.64
2023-04-30T21:55:54.815Z,20.62
2023-04-30T21:58:21.939Z,20.64
2023-04-30T22:00:49.727Z,20.65
2023-04-30T22:03:16.847Z,20.62
2023-04-30T22:05:44.268Z,20.61
2023-04-30T22:08:13.821Z,20.61
2023-04-30T22:10:40.882Z,20.66
2023-04-30T22:13:07.902Z,20.66
2023-04-30T22:15:46.967Z,20.65
2023-04-30T22:18:14.933Z,20.64
2023-04-30T22:20:41.907Z,20.61
2023-04-30T22:23:08.893Z,20.53
2023-04-30T22:25:36.273Z,20.50
2023-04-30T22:28:03.435Z,20.53
2023-04-30T22:30:30.596Z,20.55
2023-04-30T22:33:01.013Z,20.55
2023-04-30T22:35:28.387Z,20.58
2023-04-30T22:37:55.688Z,20.56
2023-04-30T22:40:23.210Z,20.58
2023-04-30T22:42:50.372Z,20.61
2023-04-30T22:45:17.686Z,20.60
2023-04-30T22:47:45.935Z,20.62
2023-04-30T22:50:13.415Z,20.62
2023-04-30T22:52:40.589Z,20.60
2023-04-30T22:55:08.400Z,20.60
2023-04-30T22:57:35.671Z,20.59
2023-04-30T23:00:04.163Z,20.59
2023-04-30T23:02:31.254Z,20.59
2023-04-30T23:04:58.421Z,20.59
2023-04-30T23:07:25.663Z,20.58
2023-04-30T23:09:52.754Z,20.57
2023-04-30T23:12:19.663Z,20.56
2023-04-30T23:14:46.658Z,20.55
2023-04-30T23:17:13.568Z,20.51
2023-04-30T23:19:40.614Z,20.52
2023-04-30T23:22:07.534Z,20.51
2023-04-30T23:24:36.391Z,20.47
2023-04-30T23:27:03.468Z,20.46
2023-04-30T23:29:30.875Z,20.48
2023-04-30T23:31:58.236Z,20.41
2023-04-30T23:34:25.699Z,20.44
2023-04-30T23:36:52.729Z,20.47
2023-04-30T23:39:19.787Z,20.49
2023-04-30T23:41:49.650Z,20.51
2023-04-30T23:44:16.668Z,20.51
2023-04-30T23:46:44.005Z,20.49
2023-04-30T23:49:11.159Z,20.47
2023-04-30T23:51:38.305Z,20.47
2023-04-30T23:54:06.097Z,20.45
2023-04-30T23:56:37.433Z,20.43
2023-04-30T23:59:04.538Z,20.38
